Terminal Aerodrome Forecast
Issued by NWS Wilmington, OH

Current Version | Previous Version | Graphics & Text | Print | Product List | Glossary On
Versions: 1 2 3 4 5 6 7 8 9 10 11 12 13 14 15 16 17 18 19 20 21 22 23 24 25 26 27
000
FTUS41 KILN 171100
TAFDAY
TAF
KDAY 171134Z 1712/1812 20015G24KT P6SM SCT009 SCT250
      TEMPO 1712/1714 BKN009
     FM172100 26013KT P6SM OVC028
     FM180500 28012KT P6SM OVC018=

USA.gov is the U.S. government's official web portal to all federal, state and local government web resources and services.